Time;durP1;ratioP1;P1;durP2;ratioP2;P2;SDS_P1;SDS_P2;PMS_P1;PMS_P2;Temp;Humidity;BMP_temperature;BMP_pressure;BME280_temperature;BME280_humidity;BME280_pressure;Samples;Min_cycle;Max_cycle;Signal;HPM_P1;HPM_P2
2022/01/23 00:00:28;;;;;;;32.92;13.00;;;;;;;5.86;100.00;99484.03;5003658;28;20056;-62
2022/01/23 00:02:59;;;;;;;;;;;;;;;6.01;100.00;99492.72;5040952;28;20037;-59
2022/01/23 00:05:26;;;;;;;30.77;13.43;;;;;;;5.60;100.00;99484.81;5040023;28;20341;-60
2022/01/23 00:07:52;;;;;;;30.30;12.48;;;;;;;5.88;100.00;99492.69;5040676;28;20013;-60
2022/01/23 00:10:19;;;;;;;29.00;12.85;;;;;;;5.58;100.00;99486.53;5038363;28;20051;-60
2022/01/23 00:12:49;;;;;;;32.17;13.27;;;;;;;5.60;100.00;99473.59;5041045;28;20021;-61
2022/01/23 00:18:00;;;;;;;29.52;12.18;;;;;;;5.90;100.00;99482.31;5040854;28;20032;-60
2022/01/23 00:20:25;;;;;;;32.13;12.88;;;;;;;6.09;100.00;99472.88;5040216;28;20041;-59
2022/01/23 00:22:55;;;;;;;33.55;10.98;;;;;;;6.58;100.00;99472.88;5040719;28;20056;-61
2022/01/23 00:30:52;;;;;;;31.80;11.82;;;;;;;6.51;100.00;99477.19;5040143;28;20051;-59
2022/01/23 00:33:18;;;;;;;29.63;13.70;;;;;;;6.10;100.00;99477.19;5040035;28;20017;-61
2022/01/23 00:35:45;;;;;;;27.42;13.52;;;;;;;5.78;100.00;99475.38;5040295;28;20035;-58
2022/01/23 00:38:11;;;;;;;29.30;13.57;;;;;;;5.69;100.00;99467.59;5040692;28;20075;-58
2022/01/23 00:40:38;;;;;;;28.52;13.40;;;;;;;5.80;100.00;99466.75;5039730;28;20036;-58
2022/01/23 00:43:13;;;;;;;30.90;13.73;;;;;;;5.90;100.00;99472.81;5040346;28;20419;-58
2022/01/23 00:45:45;;;;;;;32.03;13.23;;;;;;;6.21;100.00;99470.28;5038624;28;20037;-61
2022/01/23 00:48:12;;;;;;;34.63;13.35;;;;;;;6.30;100.00;99472.84;5040706;28;20032;-59
2022/01/23 00:50:40;;;;;;;30.67;13.52;;;;;;;5.86;100.00;99473.66;5039492;28;20144;-59
2022/01/23 00:53:10;;;;;;;29.98;13.20;;;;;;;5.64;100.00;99472.75;5040195;28;20040;-59
2022/01/23 00:55:41;;;;;;;30.02;12.75;;;;;;;5.51;100.00;99465.81;5039605;28;20039;-60
2022/01/23 00:58:06;;;;;;;29.85;13.27;;;;;;;5.65;100.00;99471.91;5038702;28;20112;-59
2022/01/23 01:00:32;;;;;;;30.30;13.00;;;;;;;5.50;100.00;99471.88;5039285;28;20048;-61
2022/01/23 01:02:58;;;;;;;30.88;13.13;;;;;;;5.59;100.00;99477.94;5039654;28;20029;-61
2022/01/23 01:05:26;;;;;;;29.13;13.50;;;;;;;5.48;100.00;99479.63;5039656;28;20052;-58
2022/01/23 01:07:53;;;;;;;26.92;12.48;;;;;;;5.37;100.00;99481.31;5039709;28;20029;-58
2022/01/23 01:10:24;;;;;;;30.67;11.93;;;;;;;5.87;100.00;99488.34;5039073;28;20111;-61
2022/01/23 01:12:55;;;;;;;30.25;12.88;;;;;;;5.62;100.00;99489.16;5039064;28;20704;-60
2022/01/23 01:15:31;;;;;;;32.03;12.57;;;;;;;5.69;100.00;99475.38;5039543;28;20517;-61
2022/01/23 01:34:17;;;;;;;30.15;12.82;;;;;;;6.15;100.00;99488.41;5043709;28;20851;-58
2022/01/23 01:36:56;;;;;;;28.40;12.18;;;;;;;5.80;100.00;99496.97;5042990;28;20215;-62
2022/01/23 01:39:26;;;;;;;29.42;13.35;;;;;;;5.64;100.00;99487.44;5043172;28;20139;-58
2022/01/23 01:41:52;;;;;;;30.70;13.57;;;;;;;5.64;100.00;99490.03;5042656;28;20049;-59
2022/01/23 01:44:18;;;;;;;30.02;12.10;;;;;;;5.78;100.00;99475.38;5043854;28;20029;-58
2022/01/23 01:46:44;;;;;;;28.42;11.07;;;;;;;6.13;100.00;99475.47;5043203;28;20039;-59
2022/01/23 01:49:10;;;;;;;40.03;14.40;;;;;;;6.48;100.00;99478.91;5042946;28;20013;-58
2022/01/23 01:51:36;;;;;;;32.95;13.88;;;;;;;5.95;100.00;99465.94;5042695;28;20450;-58
2022/01/23 01:54:17;;;;;;;31.17;13.77;;;;;;;5.81;100.00;99478.00;5043631;28;20515;-60
2022/01/23 01:57:18;;;;;;;28.77;13.82;;;;;;;5.80;100.00;99481.44;5043093;28;20040;-59
2022/01/23 02:10:26;;;;;;;30.33;13.15;;;;;;;5.81;100.00;99490.94;5042192;28;20036;-60
2022/01/23 02:15:47;;;;;;;30.73;13.10;;;;;;;5.99;100.00;99484.94;5042659;28;20035;-58
2022/01/23 02:18:30;;;;;;;33.95;14.13;;;;;;;5.61;100.00;99485.72;5042988;28;20024;-60
2022/01/23 02:50:59;;;;;;;33.20;13.93;;;;;;;5.76;100.00;99484.88;5041976;28;20067;-59
2022/01/23 02:56:02;;;;;;;30.15;13.02;;;;;;;5.81;100.00;99483.16;5041864;28;20029;-61
2022/01/23 02:58:46;;;;;;;32.20;14.18;;;;;;;5.36;100.00;99489.94;5042079;28;20052;-58
2022/01/23 03:01:17;;;;;;;31.10;12.80;;;;;;;5.89;100.00;99486.63;5041419;28;20033;-61
2022/01/23 03:03:46;;;;;;;30.13;12.93;;;;;;;5.73;100.00;99479.69;5042138;28;20548;-59
2022/01/23 03:13:59;;;;;;;34.75;14.73;;;;;;;4.87;100.00;99474.16;5042108;28;20037;-59
2022/01/23 03:24:32;;;;;;;44.50;15.70;;;;;;;3.99;100.00;99507.97;5041903;28;20114;-60
2022/01/23 03:27:05;;;;;;;48.85;17.00;;;;;;;4.03;100.00;99509.72;5041450;28;20114;-58
2022/01/23 03:32:26;;;;;;;47.92;17.13;;;;;;;4.09;100.00;99518.38;5040910;28;20102;-58
2022/01/23 03:34:51;;;;;;;33.22;12.63;;;;;;;4.85;100.00;99507.75;5041427;28;20028;-58
2022/01/23 03:37:17;;;;;;;42.38;15.70;;;;;;;4.72;100.00;99496.47;5041050;28;20043;-58
2022/01/23 03:39:42;;;;;;;40.88;14.95;;;;;;;4.71;100.00;99502.53;5041375;28;20044;-59
2022/01/23 03:42:08;;;;;;;38.33;13.85;;;;;;;4.82;100.00;99508.63;5040916;28;20033;-59
2022/01/23 03:44:39;;;;;;;38.50;13.38;;;;;;;4.97;100.00;99507.00;5039287;28;20311;-60
2022/01/23 03:47:35;;;;;;;37.30;14.80;;;;;;;4.91;100.00;99487.13;5038297;28;20392;-59
2022/01/23 03:50:00;;;;;;;35.08;13.10;;;;;;;5.05;100.00;99484.59;5037916;28;20139;-60
2022/01/23 03:52:26;;;;;;;38.40;14.02;;;;;;;5.11;100.00;99479.50;5037890;28;20029;-60
2022/01/23 03:54:52;;;;;;;36.13;14.00;;;;;;;5.02;100.00;99484.63;5040018;28;20102;-59
2022/01/23 03:57:18;;;;;;;33.17;12.75;;;;;;;4.87;100.00;99489.69;5040429;28;20428;-59
2022/01/23 03:59:43;;;;;;;32.80;12.60;;;;;;;5.07;100.00;99479.44;5041076;28;20040;-59
2022/01/23 04:02:09;;;;;;;34.83;14.55;;;;;;;4.82;100.00;99475.00;5040521;28;20041;-61
2022/01/23 04:04:41;;;;;;;32.70;14.40;;;;;;;5.29;100.00;99477.81;5041717;28;20056;-58
2022/01/23 04:07:23;;;;;;;32.97;12.40;;;;;;;5.22;100.00;99488.16;5040692;28;20064;-59
2022/01/23 04:09:49;;;;;;;33.90;13.57;;;;;;;5.32;100.00;99488.19;5040182;28;20033;-58
2022/01/23 05:01:01;;;;;;;33.40;12.57;;;;;;;5.35;100.00;99503.75;5039532;28;20083;-61
2022/01/23 05:06:11;;;;;;;33.83;13.82;;;;;;;5.34;100.00;99518.38;5039608;28;20047;-58
2022/01/23 05:08:37;;;;;;;37.00;13.77;;;;;;;5.21;100.00;99525.22;5040008;28;20032;-60
2022/01/23 05:11:06;;;;;;;32.95;13.20;;;;;;;5.32;100.00;99524.41;5039063;28;20514;-59
2022/01/23 05:13:32;;;;;;;32.92;12.73;;;;;;;5.22;100.00;99523.53;5040303;28;20025;-58
2022/01/23 05:15:58;;;;;;;36.10;13.80;;;;;;;5.29;100.00;99527.84;5039798;28;20409;-59
2022/01/23 05:18:23;;;;;;;34.22;14.00;;;;;;;5.26;100.00;99529.56;5040274;28;20846;-59
2022/01/23 05:20:57;;;;;;;37.47;13.70;;;;;;;5.31;100.00;99522.69;5038913;28;20111;-61
2022/01/23 05:23:22;;;;;;;35.42;14.13;;;;;;;4.96;100.00;99536.28;5039811;28;20033;-60
2022/01/23 05:25:48;;;;;;;32.25;12.60;;;;;;;5.08;100.00;99530.34;5039383;28;20033;-60
2022/01/23 05:28:13;;;;;;;35.92;13.25;;;;;;;5.12;100.00;99526.91;5040142;28;20754;-58
2022/01/23 05:30:39;;;;;;;31.75;13.07;;;;;;;5.06;100.00;99527.72;5039184;28;20041;-59
2022/01/23 05:33:05;;;;;;;34.33;13.88;;;;;;;5.16;100.00;99529.50;5040081;28;20021;-61
2022/01/23 05:35:31;;;;;;;34.50;13.48;;;;;;;5.11;100.00;99526.03;5038134;28;20037;-59
2022/01/23 05:37:57;;;;;;;34.53;13.77;;;;;;;5.09;100.00;99527.75;5039641;28;20038;-60
2022/01/23 05:40:25;;;;;;;33.88;13.55;;;;;;;5.24;100.00;99526.09;5039450;28;20024;-58
2022/01/23 05:42:50;;;;;;;36.10;13.88;;;;;;;5.24;100.00;99531.25;5039587;28;20634;-58
2022/01/23 05:45:16;;;;;;;34.55;14.00;;;;;;;5.33;100.00;99531.31;5039381;28;20036;-60
2022/01/23 05:47:42;;;;;;;34.63;13.32;;;;;;;5.25;100.00;99527.84;5040024;28;20078;-59
2022/01/23 05:50:08;;;;;;;32.58;13.45;;;;;;;5.15;100.00;99522.63;5038760;28;20349;-61
2022/01/23 05:52:34;;;;;;;30.80;12.70;;;;;;;5.11;100.00;99526.03;5039549;28;20063;-58
2022/01/23 05:55:00;;;;;;;33.85;14.32;;;;;;;4.99;100.00;99531.13;5039728;28;20017;-59
2022/01/23 05:57:25;;;;;;;31.60;13.73;;;;;;;5.26;100.00;99527.00;5039666;28;20057;-59
2022/01/23 05:59:51;;;;;;;36.42;13.63;;;;;;;4.93;100.00;99531.09;5039572;28;20616;-58
2022/01/23 06:02:16;;;;;;;33.78;10.90;;;;;;;5.40;100.00;99531.38;5039021;28;20748;-57
2022/01/23 06:04:41;;;;;;;33.35;13.52;;;;;;;5.26;100.00;99535.59;5039879;28;20084;-58
2022/01/23 06:07:07;;;;;;;32.40;11.95;;;;;;;5.29;100.00;99530.44;5038993;28;20155;-59
2022/01/23 06:09:33;;;;;;;34.50;13.35;;;;;;;5.04;100.00;99534.63;5039433;28;20111;-59
2022/01/23 06:11:58;;;;;;;33.75;13.45;;;;;;;5.17;100.00;99540.72;5038901;28;20095;-61
2022/01/23 06:14:25;;;;;;;36.88;13.73;;;;;;;5.26;100.00;99542.50;5042070;28;20063;-58
2022/01/23 06:16:51;;;;;;;33.35;13.25;;;;;;;5.31;100.00;99545.97;5042552;28;20044;-60
2022/01/23 06:19:16;;;;;;;34.50;12.90;;;;;;;5.12;100.00;99548.44;5043193;28;20028;-59
2022/01/23 06:21:41;;;;;;;34.10;13.73;;;;;;;5.37;100.00;99553.78;5042428;28;20525;-58
2022/01/23 06:24:10;;;;;;;33.30;13.52;;;;;;;5.21;100.00;99569.19;5042956;28;20532;-61
2022/01/23 06:26:48;;;;;;;37.55;14.38;;;;;;;5.33;100.00;99560.66;5042520;28;20631;-59
2022/01/23 06:29:16;;;;;;;37.13;14.18;;;;;;;5.18;100.00;99565.72;5042869;28;20025;-58
2022/01/23 06:31:43;;;;;;;32.90;13.55;;;;;;;5.33;100.00;99562.34;5042122;28;20041;-60
2022/01/23 06:34:09;;;;;;;35.85;14.13;;;;;;;5.20;100.00;99562.31;5042395;28;20068;-58
2022/01/23 06:36:36;;;;;;;40.92;12.75;;;;;;;5.39;100.00;99562.41;5042332;28;20049;-59
2022/01/23 06:39:04;;;;;;;33.58;13.80;;;;;;;5.03;100.00;99574.25;5042607;28;20044;-61
2022/01/23 06:41:29;;;;;;;33.97;13.43;;;;;;;5.17;100.00;99570.03;5042060;28;20037;-60
2022/01/23 06:43:54;;;;;;;43.78;14.55;;;;;;;4.96;100.00;99572.47;5042657;28;20021;-61
2022/01/23 06:46:20;;;;;;;37.80;14.65;;;;;;;4.86;100.00;99581.91;5042114;28;20056;-58
2022/01/23 06:48:45;;;;;;;38.42;14.15;;;;;;;5.07;100.00;99585.50;5042382;28;20032;-62
2022/01/23 06:51:11;;;;;;;37.25;14.52;;;;;;;5.05;100.00;99592.38;5041657;28;20075;-61
2022/01/23 06:53:36;;;;;;;35.03;13.65;;;;;;;4.96;100.00;99598.34;5041354;28;20152;-59
2022/01/23 06:56:01;;;;;;;42.13;13.77;;;;;;;5.00;100.00;99600.97;5041783;28;20029;-60
2022/01/23 06:58:27;;;;;;;37.40;13.82;;;;;;;4.99;100.00;99588.88;5042283;28;20391;-59
2022/01/23 07:00:52;;;;;;;37.53;14.43;;;;;;;5.14;100.00;99598.47;5041707;28;20029;-61
2022/01/23 07:03:18;;;;;;;36.78;14.32;;;;;;;5.08;100.00;99593.28;5041984;28;20047;-61
2022/01/23 07:05:43;;;;;;;46.38;14.35;;;;;;;5.22;100.00;99602.00;5041687;28;20426;-60
2022/01/23 07:08:08;;;;;;;31.15;12.52;;;;;;;5.22;100.00;99602.00;5041868;28;20112;-60
2022/01/23 07:10:33;;;;;;;43.28;14.18;;;;;;;5.03;100.00;99603.56;5041250;28;20045;-61
2022/01/23 07:12:59;;;;;;;36.92;14.32;;;;;;;5.30;100.00;99602.03;5042337;28;20025;-59
2022/01/23 07:15:24;;;;;;;35.38;12.88;;;;;;;5.10;100.00;99603.63;5041521;28;20041;-62
2022/01/23 07:17:51;;;;;;;36.10;13.50;;;;;;;5.32;100.00;99615.84;5041951;28;20032;-59
2022/01/23 07:20:16;;;;;;;38.75;14.00;;;;;;;5.33;100.00;99611.53;5041622;28;20189;-60
2022/01/23 07:22:42;;;;;;;37.42;13.63;;;;;;;5.07;100.00;99617.38;5042117;28;20593;-59
2022/01/23 07:25:07;;;;;;;36.15;13.88;;;;;;;5.12;100.00;99618.28;5041665;28;20028;-62
2022/01/23 07:27:42;;;;;;;36.65;13.88;;;;;;;5.33;100.00;99619.28;5041575;28;20100;-61
2022/01/23 07:30:20;;;;;;;35.00;14.02;;;;;;;5.25;100.00;99620.97;5041043;28;20620;-60
2022/01/23 07:32:45;;;;;;;37.42;13.38;;;;;;;5.24;100.00;99627.00;5041874;28;20111;-59
2022/01/23 07:35:10;;;;;;;41.63;14.48;;;;;;;5.40;100.00;99636.59;5041407;28;20508;-60
2022/01/23 07:37:36;;;;;;;33.90;13.73;;;;;;;5.18;100.00;99633.88;5041592;28;21028;-59
2022/01/23 07:40:01;;;;;;;37.88;13.68;;;;;;;5.52;100.00;99636.66;5041670;28;20025;-61
2022/01/23 07:42:26;;;;;;;38.88;14.57;;;;;;;5.25;100.00;99636.50;5041453;28;20044;-59
2022/01/23 07:44:53;;;;;;;39.22;14.18;;;;;;;5.71;100.00;99644.53;5040054;28;20033;-59
2022/01/23 07:47:22;;;;;;;38.97;14.05;;;;;;;5.21;100.00;99636.47;5039577;28;20040;-62
2022/01/23 07:49:49;;;;;;;35.17;14.52;;;;;;;5.55;100.00;99653.91;5041707;28;20035;-62
2022/01/23 07:52:18;;;;;;;35.92;14.52;;;;;;;5.41;100.00;99654.72;5040720;28;20041;-60
2022/01/23 07:54:43;;;;;;;39.22;14.93;;;;;;;5.45;100.00;99655.59;5041469;28;20044;-62
2022/01/23 07:57:09;;;;;;;35.25;13.38;;;;;;;5.28;100.00;99657.22;5040736;28;20064;-61
2022/01/23 07:59:34;;;;;;;38.08;13.77;;;;;;;5.05;100.00;99654.44;5040931;28;20040;-60
2022/01/23 08:02:01;;;;;;;32.10;13.23;;;;;;;5.30;100.00;99656.38;5040377;28;20227;-62
2022/01/23 08:04:26;;;;;;;37.60;14.20;;;;;;;5.52;100.00;99652.19;5039831;28;20029;-61
2022/01/23 08:07:07;;;;;;;32.65;13.43;;;;;;;5.59;100.00;99659.13;5040507;28;20045;-58
2022/01/23 08:09:33;;;;;;;34.65;13.48;;;;;;;5.47;100.00;99664.22;5040658;28;20024;-60
2022/01/23 08:11:59;;;;;;;37.97;15.13;;;;;;;5.41;100.00;99654.72;5040361;28;20041;-61
2022/01/23 08:14:24;;;;;;;35.45;13.13;;;;;;;5.49;100.00;99662.50;5041129;28;20031;-60
2022/01/23 08:16:49;;;;;;;35.10;12.00;;;;;;;5.90;100.00;99659.31;5040574;28;20090;-62
2022/01/23 08:19:15;;;;;;;31.55;12.38;;;;;;;5.87;100.00;99655.84;5038173;28;20040;-59
2022/01/23 08:21:40;;;;;;;33.17;13.13;;;;;;;5.86;100.00;99656.69;5037519;28;20078;-61
2022/01/23 08:24:06;;;;;;;35.30;14.20;;;;;;;5.62;100.00;99662.59;5040497;28;20574;-62
2022/01/23 08:26:31;;;;;;;147.70;17.35;;;;;;;5.58;100.00;99662.56;5040119;28;20044;-60
2022/01/23 08:28:57;;;;;;;34.13;14.10;;;;;;;5.41;100.00;99664.22;5040685;28;20094;-59
2022/01/23 08:31:22;;;;;;;34.10;14.07;;;;;;;5.55;100.00;99667.75;5039552;28;20132;-62
2022/01/23 08:33:48;;;;;;;32.00;12.88;;;;;;;5.67;100.00;99672.13;5040506;28;20044;-59
2022/01/23 08:36:13;;;;;;;38.35;14.40;;;;;;;5.87;100.00;99666.19;5039248;28;20071;-59
2022/01/23 08:38:39;;;;;;;30.10;13.93;;;;;;;5.79;100.00;99673.94;5040127;28;20056;-60
2022/01/23 08:43:48;;;;;;;32.25;13.32;;;;;;;5.90;100.00;99673.94;5040556;28;20025;-61
2022/01/23 08:46:14;;;;;;;32.45;13.43;;;;;;;5.63;100.00;99670.38;5039929;28;20459;-61
2022/01/23 08:48:41;;;;;;;35.83;13.85;;;;;;;5.92;100.00;99664.50;5036803;28;20798;-59
2022/01/23 08:51:07;;;;;;;36.92;13.32;;;;;;;5.90;100.00;99664.47;5037188;28;20047;-59
2022/01/23 08:53:32;;;;;;;30.27;13.38;;;;;;;5.87;100.00;99664.47;5039878;28;20017;-60
2022/01/23 08:55:58;;;;;;;35.47;13.40;;;;;;;5.82;100.00;99671.34;5039120;28;20419;-61
2022/01/23 08:58:23;;;;;;;32.67;14.20;;;;;;;5.71;100.00;99671.28;5040424;28;20024;-58
2022/01/23 09:00:48;;;;;;;33.38;12.88;;;;;;;5.87;100.00;99667.03;5038543;28;20037;-61
2022/01/23 09:03:14;;;;;;;32.03;13.70;;;;;;;5.88;100.00;99673.97;5038051;28;20029;-59
2022/01/23 09:05:40;;;;;;;35.17;13.68;;;;;;;5.54;100.00;99673.78;5038660;28;20025;-60
2022/01/23 09:08:05;;;;;;;42.70;15.75;;;;;;;4.70;100.00;99673.97;5021322;28;20021;-58
2022/01/23 09:10:40;;;;;;;40.10;14.57;;;;;;;4.55;100.00;99674.69;5038257;28;20225;-58
2022/01/23 09:13:11;;;;;;;39.65;14.40;;;;;;;4.67;100.00;99684.31;5039706;28;20020;-60
2022/01/23 09:15:36;;;;;;;39.38;13.93;;;;;;;4.47;100.00;99684.09;5038745;28;20655;-58
2022/01/23 09:18:03;;;;;;;34.65;13.32;;;;;;;4.43;100.00;99679.75;5038526;28;20631;-58
2022/01/23 09:20:29;;;;;;;37.00;13.50;;;;;;;4.62;100.00;99676.50;5036196;28;20593;-58
2022/01/23 09:22:54;;;;;;;37.72;14.25;;;;;;;4.60;100.00;99673.03;5038608;28;20044;-60
2022/01/23 09:25:20;;;;;;;32.50;11.10;;;;;;;5.12;100.00;99688.13;5035587;28;20029;-61
2022/01/23 09:27:46;;;;;;;40.97;14.13;;;;;;;5.21;100.00;99680.44;5035391;28;20025;-61
2022/01/23 09:30:20;;;;;;;34.75;13.05;;;;;;;5.25;100.00;99683.06;5034708;28;20021;-57
2022/01/23 09:32:47;;;;;;;34.78;12.07;;;;;;;5.50;100.00;99673.75;5037671;28;20017;-59
2022/01/23 09:35:14;;;;;;;36.90;12.70;;;;;;;5.81;100.00;99679.97;5038696;28;20033;-59
2022/01/23 09:37:41;;;;;;;30.00;11.80;;;;;;;5.76;100.00;99681.66;5038954;28;20406;-59
2022/01/23 09:40:08;;;;;;;34.85;13.52;;;;;;;5.73;100.00;99676.47;5039502;28;20013;-60
2022/01/23 09:42:45;;;;;;;29.60;12.43;;;;;;;5.79;100.00;99676.53;5039487;28;20029;-60
2022/01/23 09:45:12;;;;;;;29.25;11.52;;;;;;;5.90;100.00;99674.84;5037892;28;20025;-58
2022/01/23 09:47:39;;;;;;;29.15;10.95;;;;;;;5.94;100.00;99680.91;5053289;28;20032;-60
2022/01/23 09:50:07;;;;;;;27.60;10.85;;;;;;;6.01;100.00;99676.63;5043161;28;20078;-59
2022/01/23 09:52:35;;;;;;;25.08;10.00;;;;;;;6.31;100.00;99679.34;5042928;28;20090;-61
2022/01/23 09:55:08;;;;;;;27.35;10.75;;;;;;;6.07;100.00;99682.72;5043700;28;20033;-59
2022/01/23 09:57:37;;;;;;;23.98;10.00;;;;;;;6.17;100.00;99688.78;5043101;28;20106;-59
2022/01/23 10:00:08;;;;;;;23.25;9.85;;;;;;;6.36;100.00;99687.16;5043492;28;20513;-58
2022/01/23 10:02:33;;;;;;;23.65;9.65;;;;;;;6.02;100.00;99688.75;5042626;28;20051;-60
2022/01/23 10:04:59;;;;;;;24.05;9.10;;;;;;;5.98;100.00;99696.47;5043761;28;20033;-59
2022/01/23 10:07:25;;;;;;;21.17;9.38;;;;;;;5.97;100.00;99693.88;5042749;28;20073;-60
2022/01/23 10:09:56;;;;;;;27.83;9.50;;;;;;;5.95;100.00;99693.88;5042862;28;20025;-59
2022/01/23 10:12:26;;;;;;;21.92;9.00;;;;;;;5.99;100.00;99689.56;5042636;28;20049;-58
2022/01/23 10:14:56;;;;;;;21.65;9.00;;;;;;;6.35;100.00;99680.22;5043603;28;20029;-59
2022/01/23 10:17:22;;;;;;;19.20;8.27;;;;;;;6.39;100.00;99681.09;5042768;28;20450;-58
2022/01/23 10:19:48;;;;;;;17.58;7.75;;;;;;;6.30;100.00;99672.41;5043591;28;20082;-58
2022/01/23 10:22:15;;;;;;;21.40;7.90;;;;;;;6.73;100.00;99663.88;5042618;28;20033;-59
2022/01/23 10:24:40;;;;;;;22.10;8.98;;;;;;;6.81;100.00;99674.28;5043501;28;20482;-59
2022/01/23 10:27:06;;;;;;;16.83;6.95;;;;;;;6.62;100.00;99661.28;5042663;28;20033;-59
2022/01/23 10:29:36;;;;;;;18.80;7.15;;;;;;;6.81;100.00;99661.28;5042763;28;20047;-58
2022/01/23 10:32:07;;;;;;;17.50;7.38;;;;;;;7.06;100.00;99662.19;5042394;28;20056;-58
2022/01/23 10:35:02;;;;;;;17.40;7.60;;;;;;;6.87;100.00;99667.34;5043638;28;20021;-57
2022/01/23 10:37:30;;;;;;;16.58;6.93;;;;;;;6.81;100.00;99661.28;5022258;28;20051;-59
2022/01/23 10:39:56;;;;;;;17.67;7.15;;;;;;;7.24;100.00;99666.47;5043156;28;20021;-58
2022/01/23 10:48:40;;;;;;;16.95;6.97;;;;;;;7.32;100.00;99660.41;5042052;28;20629;-57
2022/01/23 10:51:20;;;;;;;15.15;6.70;;;;;;;6.97;100.00;99663.03;5040020;28;20041;-58
2022/01/23 10:54:02;;;;;;;13.40;5.95;;;;;;;7.14;100.00;99660.44;5042434;28;20592;-61
2022/01/23 10:56:31;;;;;;;15.25;6.63;;;;;;;7.28;100.00;99655.25;5042050;28;20052;-57
2022/01/23 10:59:06;;;;;;;18.33;6.85;;;;;;;7.49;100.00;99660.38;5040463;28;20036;-61
2022/01/23 11:01:32;;;;;;;17.13;6.65;;;;;;;7.70;100.00;99656.00;5041614;28;20041;-58
2022/01/23 11:04:03;;;;;;;14.13;6.22;;;;;;;7.74;100.00;99647.34;5042991;28;20087;-59
2022/01/23 11:06:28;;;;;;;15.87;6.90;;;;;;;7.86;100.00;99646.44;5041893;28;20324;-59
2022/01/23 11:09:07;;;;;;;13.93;6.00;;;;;;;7.60;100.00;99649.97;5042370;28;20107;-59
2022/01/23 11:11:43;;;;;;;14.23;6.32;;;;;;;7.47;100.00;99648.28;5041235;28;20041;-59
2022/01/23 11:19:43;;;;;;;15.20;6.28;;;;;;;7.51;100.00;99655.19;5042470;28;20032;-59
2022/01/23 11:22:22;;;;;;;14.95;5.85;;;;;;;7.84;100.00;99649.03;5041649;28;20040;-60
2022/01/23 11:24:49;;;;;;;13.63;5.82;;;;;;;7.42;100.00;99660.41;5042352;28;20033;-59
2022/01/23 11:27:17;;;;;;;11.70;5.90;;;;;;;8.03;100.00;99661.97;5040814;28;20041;-58
2022/01/23 11:30:04;;;;;;;17.20;5.78;;;;;;;8.06;100.00;99648.97;5041899;28;20523;-58
2022/01/23 11:32:36;;;;;;;12.68;5.50;;;;;;;7.79;100.00;99650.78;5041320;28;20041;-58
2022/01/23 11:35:08;;;;;;;13.27;5.47;;;;;;;7.90;100.00;99659.44;5042150;28;20391;-59
2022/01/23 11:37:36;;;;;;;12.93;5.60;;;;;;;8.02;100.00;99658.50;5041719;28;20045;-59
2022/01/23 11:54:04;;;;;;;11.32;5.53;;;;;;;7.94;100.00;99654.19;5041541;28;20029;-60
2022/01/23 11:56:35;;;;;;;11.27;5.35;;;;;;;7.87;100.00;99651.63;5041021;28;20037;-59
2022/01/23 11:59:15;;;;;;;13.02;5.70;;;;;;;7.76;100.00;99649.94;5039839;28;20028;-61
2022/01/23 12:01:43;;;;;;;13.65;5.50;;;;;;;7.71;100.00;99653.41;5040830;28;20045;-59
2022/01/23 12:04:11;;;;;;;11.45;5.20;;;;;;;7.46;100.00;99652.63;5041490;28;20062;-57
2022/01/23 12:06:39;;;;;;;13.13;5.45;;;;;;;7.33;100.00;99650.88;5040572;28;20049;-60
2022/01/23 12:09:13;;;;;;;14.88;6.03;;;;;;;7.28;100.00;99644.88;5040604;28;20140;-59
2022/01/23 12:11:48;;;;;;;12.15;5.30;;;;;;;7.46;100.00;99643.94;5038515;28;20041;-59
2022/01/23 12:17:01;;;;;;;11.70;5.03;;;;;;;7.24;100.00;99636.22;5040491;28;20044;-60
2022/01/23 12:19:47;;;;;;;13.43;5.28;;;;;;;7.21;100.00;99630.16;5040909;28;20086;-58
2022/01/23 12:22:26;;;;;;;12.43;5.18;;;;;;;7.25;100.00;99637.06;5039851;28;20554;-59
2022/01/23 12:24:55;;;;;;;10.65;4.75;;;;;;;7.72;100.00;99634.38;5040690;28;20040;-59
2022/01/23 12:27:24;;;;;;;9.57;4.70;;;;;;;7.44;100.00;99623.16;5040394;28;20041;-59
2022/01/23 12:29:51;;;;;;;12.88;5.15;;;;;;;7.46;100.00;99621.47;5040777;28;20044;-58
2022/01/23 12:32:29;;;;;;;11.43;4.82;;;;;;;7.58;100.00;99622.28;5039937;28;20055;-59
2022/01/23 12:34:58;;;;;;;10.93;5.10;;;;;;;7.49;100.00;99621.44;5040495;28;20021;-60
2022/01/23 12:37:24;;;;;;;12.25;5.07;;;;;;;7.40;100.00;99621.47;5038541;28;20499;-59
2022/01/23 12:40:27;;;;;;;12.05;5.68;;;;;;;7.16;100.00;99618.91;5040598;28;20032;-60
2022/01/23 12:43:12;;;;;;;14.18;6.15;;;;;;;7.19;100.00;99621.53;5039936;28;20045;-58
2022/01/23 12:46:04;;;;;;;12.43;5.75;;;;;;;7.34;100.00;99618.88;5040260;28;20040;-59
2022/01/23 12:48:36;;;;;;;12.63;5.35;;;;;;;6.95;100.00;99615.47;5040325;28;20483;-58
2022/01/23 12:51:01;;;;;;;14.05;5.93;;;;;;;7.28;100.00;99626.69;5039951;28;20048;-60
2022/01/23 12:53:57;;;;;;;12.30;5.40;;;;;;;7.44;100.00;99615.38;5040579;28;20024;-57
2022/01/23 12:56:33;;;;;;;12.55;5.43;;;;;;;7.32;100.00;99615.44;5039409;28;20037;-60
2022/01/23 12:59:07;;;;;;;11.20;5.18;;;;;;;7.60;100.00;99610.16;5040219;28;20514;-59
2022/01/23 13:01:33;;;;;;;11.30;5.22;;;;;;;7.33;100.00;99615.44;5039501;28;20094;-58
2022/01/23 13:04:02;;;;;;;14.25;5.53;;;;;;;7.19;100.00;99622.38;5039749;28;20041;-60
2022/01/23 13:06:54;;;;;;;13.63;5.82;;;;;;;7.40;100.00;99620.59;5039280;28;20033;-57
2022/01/23 13:15:38;;;;;;;12.95;4.90;;;;;;;7.00;100.00;99618.91;4987975;28;20185;-60
2022/01/23 13:18:33;;;;;;;12.02;4.55;;;;;;;7.49;100.00;99615.38;5025188;28;20068;-60
2022/01/23 13:32:41;;;;;;;14.82;5.30;;;;;;;7.86;100.00;99618.72;5038182;28;20102;-59
2022/01/23 13:35:12;;;;;;;14.32;4.70;;;;;;;6.93;100.00;99614.63;5038365;28;20530;-58
2022/01/23 13:37:40;;;;;;;11.57;4.15;;;;;;;7.06;100.00;99610.28;5039593;28;20021;-60
2022/01/23 13:40:23;;;;;;;15.65;5.30;;;;;;;7.39;100.00;99604.16;5039782;28;20047;-58
2022/01/23 13:59:17;;;;;;;10.75;4.22;;;;;;;7.39;100.00;99608.47;5039303;28;20032;-57
2022/01/23 14:02:08;;;;;;;14.38;4.90;;;;;;;7.51;100.00;99604.13;5038409;28;20073;-58
2022/01/23 14:04:40;;;;;;;12.67;4.23;;;;;;;7.52;100.00;99605.00;5039389;28;20108;-58
2022/01/23 14:07:06;;;;;;;13.63;4.45;;;;;;;7.40;100.00;99605.03;5038926;28;20276;-58
2022/01/23 14:09:40;;;;;;;12.63;4.30;;;;;;;7.24;100.00;99605.06;5039043;28;20495;-59
2022/01/23 14:12:10;;;;;;;10.23;4.35;;;;;;;7.10;100.00;99604.22;5038570;28;20094;-58
2022/01/23 14:14:47;;;;;;;12.25;4.20;;;;;;;7.34;100.00;99605.91;5039273;28;20131;-60
2022/01/23 14:17:14;;;;;;;12.10;4.38;;;;;;;7.34;100.00;99591.19;5039321;28;20675;-59
2022/01/23 14:19:39;;;;;;;12.70;4.45;;;;;;;7.50;100.00;99602.41;5038915;28;20079;-57
2022/01/23 14:22:05;;;;;;;11.88;4.50;;;;;;;7.35;100.00;99597.22;5038936;28;20040;-59
2022/01/23 14:24:36;;;;;;;13.98;5.10;;;;;;;7.20;100.00;99603.31;5039177;28;20108;-61
2022/01/23 14:27:11;;;;;;;12.88;4.65;;;;;;;7.63;100.00;99602.38;5038154;28;20039;-59
2022/01/23 14:29:55;;;;;;;11.48;4.22;;;;;;;7.46;100.00;99608.47;5039050;28;20029;-59
2022/01/23 14:32:46;;;;;;;13.18;4.35;;;;;;;7.64;100.00;99609.28;5037740;28;20049;-59
2022/01/23 14:35:12;;;;;;;12.15;3.97;;;;;;;7.63;100.00;99610.16;5039452;28;20039;-57
2022/01/23 14:37:39;;;;;;;13.85;4.13;;;;;;;7.73;100.00;99609.25;5042874;28;20028;-58
2022/01/23 14:40:16;;;;;;;13.40;3.95;;;;;;;7.63;100.00;99608.44;5042457;28;21017;-58
2022/01/23 14:42:58;;;;;;;12.65;4.20;;;;;;;7.57;100.00;99607.56;5042477;28;20537;-59
2022/01/23 14:45:23;;;;;;;12.25;4.38;;;;;;;7.30;100.00;99601.59;5040338;28;20041;-59
2022/01/23 14:47:50;;;;;;;16.60;4.80;;;;;;;7.58;100.00;99601.53;5042418;28;20029;-60
2022/01/23 14:50:18;;;;;;;12.98;4.13;;;;;;;7.53;100.00;99593.72;5041958;28;20029;-60
2022/01/23 14:52:44;;;;;;;12.88;4.22;;;;;;;7.36;100.00;99590.34;5042033;28;20032;-60
2022/01/23 14:55:09;;;;;;;12.73;4.20;;;;;;;7.56;100.00;99598.06;5042057;28;20028;-59